Antonio Carlos, Brazil
Current Conditions -  °F | °C
As of 3:15 PM on Wednesday 26 Nov 2014 (Local Time) from SBBQ Reporting Station
Thunderstorm Thunderstorm  
Wind Chill: 70°   Ceiling: 2100
Heat Index: 70°   Visibility: 0.93mi
Dew Point: 64°   Wind: 15mph
Humidity: 83%   Direction: 340°NNW
Pressure: 29.97"   Gusts: NA
Location:  21.32°S, 43.75°W
Report Text: SBBQ 261715Z 34013KT 1500 TSRA BKN021 FEW030CB 21/18 Q1015
Loading
Personal Weather Stations






























Interactive Weather Map New forecast layout! Learn more

10-Day Weather Forecast

Advertisements
Track Severe Weather on mobile